sensor_id;sensor_type;location;lat;lon;timestamp;pressure;altitude;pressure_sealevel;temperature;humidity
39265;BME280;42646;51.910;7.724;2023-09-12T00:01:29;100744.09;;;19.57;100.00
39265;BME280;42646;51.910;7.724;2023-09-12T00:04:00;100758.41;;;19.58;100.00
39265;BME280;42646;51.910;7.724;2023-09-12T00:06:28;100755.53;;;19.59;100.00
39265;BME280;42646;51.910;7.724;2023-09-12T00:08:56;100758.03;;;19.61;100.00
39265;BME280;42646;51.910;7.724;2023-09-12T00:11:23;100742.50;;;19.63;100.00
39265;BME280;42646;51.910;7.724;2023-09-12T00:13:53;100726.09;;;19.64;100.00
39265;BME280;42646;51.910;7.724;2023-09-12T00:16:21;100689.56;;;19.68;100.00
39265;BME280;42646;51.910;7.724;2023-09-12T00:18:49;100680.25;;;19.71;100.00
39265;BME280;42646;51.910;7.724;2023-09-12T00:21:18;100682.75;;;19.72;100.00
39265;BME280;42646;51.910;7.724;2023-09-12T00:23:46;100689.00;;;19.73;100.00
39265;BME280;42646;51.910;7.724;2023-09-12T00:26:15;100686.28;;;19.73;100.00
39265;BME280;42646;51.910;7.724;2023-09-12T00:29:07;100683.41;;;19.74;100.00
39265;BME280;42646;51.910;7.724;2023-09-12T00:31:34;100686.13;;;19.74;100.00
39265;BME280;42646;51.910;7.724;2023-09-12T00:34:02;100694.38;;;19.73;100.00
39265;BME280;42646;51.910;7.724;2023-09-12T00:36:32;100695.03;;;19.75;100.00
39265;BME280;42646;51.910;7.724;2023-09-12T00:39:00;100685.25;;;19.74;100.00
39265;BME280;42646;51.910;7.724;2023-09-12T00:41:28;100682.56;;;19.74;100.00
39265;BME280;42646;51.910;7.724;2023-09-12T00:43:55;100678.84;;;19.75;100.00
39265;BME280;42646;51.910;7.724;2023-09-12T00:46:24;100672.41;;;19.76;100.00
39265;BME280;42646;51.910;7.724;2023-09-12T00:48:55;100665.97;;;19.77;100.00
39265;BME280;42646;51.910;7.724;2023-09-12T00:51:27;100656.84;;;19.78;100.00
39265;BME280;42646;51.910;7.724;2023-09-12T00:53:59;100665.56;;;19.80;100.00
39265;BME280;42646;51.910;7.724;2023-09-12T00:56:28;100658.13;;;19.82;100.00
39265;BME280;42646;51.910;7.724;2023-09-12T00:58:56;100666.00;;;19.84;100.00
39265;BME280;42646;51.910;7.724;2023-09-12T01:01:26;100677.66;;;19.84;100.00
39265;BME280;42646;51.910;7.724;2023-09-12T01:03:55;100683.66;;;19.86;100.00
39265;BME280;42646;51.910;7.724;2023-09-12T01:06:24;100701.56;;;19.87;100.00
39265;BME280;42646;51.910;7.724;2023-09-12T01:08:55;100696.16;;;19.87;100.00
39265;BME280;42646;51.910;7.724;2023-09-12T01:11:26;100692.63;;;19.87;100.00
39265;BME280;42646;51.910;7.724;2023-09-12T01:13:54;100686.00;;;19.89;100.00
39265;BME280;42646;51.910;7.724;2023-09-12T01:16:24;100683.28;;;19.89;100.00
39265;BME280;42646;51.910;7.724;2023-09-12T01:18:52;100674.34;;;19.89;100.00
39265;BME280;42646;51.910;7.724;2023-09-12T01:21:38;100684.94;;;19.90;100.00
39265;BME280;42646;51.910;7.724;2023-09-12T01:24:23;100702.63;;;19.93;100.00
39265;BME280;42646;51.910;7.724;2023-09-12T01:27:12;100720.72;;;19.92;100.00
39265;BME280;42646;51.910;7.724;2023-09-12T01:29:43;100804.78;;;19.89;100.00
39265;BME280;42646;51.910;7.724;2023-09-12T01:32:13;100832.25;;;19.93;100.00
39265;BME280;42646;51.910;7.724;2023-09-12T01:34:42;100845.09;;;19.91;100.00
39265;BME280;42646;51.910;7.724;2023-09-12T01:37:09;100837.81;;;19.91;100.00
39265;BME280;42646;51.910;7.724;2023-09-12T01:40:03;100791.91;;;19.91;100.00
39265;BME280;42646;51.910;7.724;2023-09-12T01:42:36;100759.34;;;19.93;100.00
39265;BME280;42646;51.910;7.724;2023-09-12T01:45:06;100743.78;;;19.95;100.00
39265;BME280;42646;51.910;7.724;2023-09-12T01:47:35;100766.66;;;19.99;100.00
39265;BME280;42646;51.910;7.724;2023-09-12T01:50:06;100743.81;;;20.01;100.00
39265;BME280;42646;51.910;7.724;2023-09-12T01:52:36;100749.84;;;20.04;100.00
39265;BME280;42646;51.910;7.724;2023-09-12T01:55:06;100733.63;;;20.04;100.00
39265;BME280;42646;51.910;7.724;2023-09-12T01:57:37;100689.41;;;20.05;100.00
39265;BME280;42646;51.910;7.724;2023-09-12T02:00:07;100617.50;;;20.04;100.00
39265;BME280;42646;51.910;7.724;2023-09-12T02:02:35;100551.03;;;20.02;100.00
39265;BME280;42646;51.910;7.724;2023-09-12T02:05:09;100578.25;;;20.01;100.00
39265;BME280;42646;51.910;7.724;2023-09-12T02:07:41;100613.72;;;19.98;100.00
39265;BME280;42646;51.910;7.724;2023-09-12T02:10:10;100615.44;;;19.99;100.00
39265;BME280;42646;51.910;7.724;2023-09-12T02:12:40;100646.13;;;19.98;100.00
39265;BME280;42646;51.910;7.724;2023-09-12T02:15:09;100644.69;;;19.95;100.00
39265;BME280;42646;51.910;7.724;2023-09-12T02:17:38;100625.34;;;19.92;100.00
39265;BME280;42646;51.910;7.724;2023-09-12T02:20:08;100629.06;;;19.91;100.00
39265;BME280;42646;51.910;7.724;2023-09-12T02:22:36;100632.81;;;19.90;100.00
39265;BME280;42646;51.910;7.724;2023-09-12T02:25:07;100633.66;;;19.90;100.00
39265;BME280;42646;51.910;7.724;2023-09-12T02:27:35;100623.88;;;19.89;100.00
39265;BME280;42646;51.910;7.724;2023-09-12T02:30:06;100613.28;;;19.88;100.00
39265;BME280;42646;51.910;7.724;2023-09-12T02:32:34;100618.50;;;19.89;100.00
39265;BME280;42646;51.910;7.724;2023-09-12T02:35:03;100637.59;;;19.88;100.00
39265;BME280;42646;51.910;7.724;2023-09-12T02:37:31;100632.38;;;19.86;100.00
39265;BME280;42646;51.910;7.724;2023-09-12T02:40:01;100652.31;;;19.85;100.00
39265;BME280;42646;51.910;7.724;2023-09-12T02:42:32;100684.72;;;19.85;100.00
39265;BME280;42646;51.910;7.724;2023-09-12T02:45:07;100684.09;;;19.83;100.00
39265;BME280;42646;51.910;7.724;2023-09-12T02:47:35;100662.28;;;19.85;100.00
39265;BME280;42646;51.910;7.724;2023-09-12T02:50:03;100645.25;;;19.84;100.00
39265;BME280;42646;51.910;7.724;2023-09-12T02:52:31;100666.00;;;19.84;100.00
39265;BME280;42646;51.910;7.724;2023-09-12T02:54:58;100698.41;;;19.84;100.00
39265;BME280;42646;51.910;7.724;2023-09-12T02:57:28;100743.69;;;19.82;100.00
39265;BME280;42646;51.910;7.724;2023-09-12T02:59:57;100710.25;;;19.83;100.00
39265;BME280;42646;51.910;7.724;2023-09-12T03:02:51;100731.00;;;19.82;100.00
39265;BME280;42646;51.910;7.724;2023-09-12T03:05:45;100732.88;;;19.82;100.00
39265;BME280;42646;51.910;7.724;2023-09-12T03:08:16;100707.31;;;19.78;100.00
39265;BME280;42646;51.910;7.724;2023-09-12T03:10:44;100687.16;;;19.80;100.00
39265;BME280;42646;51.910;7.724;2023-09-12T03:13:12;100636.06;;;19.79;100.00
39265;BME280;42646;51.910;7.724;2023-09-12T03:15:41;100594.75;;;19.78;100.00
39265;BME280;42646;51.910;7.724;2023-09-12T03:18:12;100580.41;;;19.78;100.00
39265;BME280;42646;51.910;7.724;2023-09-12T03:20:40;100582.69;;;19.74;100.00
39265;BME280;42646;51.910;7.724;2023-09-12T03:23:10;100619.84;;;19.72;100.00
39265;BME280;42646;51.910;7.724;2023-09-12T03:25:39;100631.06;;;19.69;100.00
39265;BME280;42646;51.910;7.724;2023-09-12T03:28:09;100615.25;;;19.66;100.00
39265;BME280;42646;51.910;7.724;2023-09-12T03:30:39;100628.13;;;19.64;100.00
39265;BME280;42646;51.910;7.724;2023-09-12T03:33:32;100658.19;;;19.61;100.00
39265;BME280;42646;51.910;7.724;2023-09-12T03:36:00;100693.47;;;19.59;100.00
39265;BME280;42646;51.910;7.724;2023-09-12T03:38:32;100685.38;;;19.59;100.00
39265;BME280;42646;51.910;7.724;2023-09-12T03:41:01;100672.91;;;19.58;100.00
39265;BME280;42646;51.910;7.724;2023-09-12T03:43:29;100701.91;;;19.56;100.00
39265;BME280;42646;51.910;7.724;2023-09-12T03:45:57;100710.41;;;19.53;100.00
39265;BME280;42646;51.910;7.724;2023-09-12T03:48:25;100640.84;;;19.48;100.00
39265;BME280;42646;51.910;7.724;2023-09-12T03:50:55;100714.47;;;19.42;100.00
39265;BME280;42646;51.910;7.724;2023-09-12T03:53:24;100713.38;;;19.37;100.00
39265;BME280;42646;51.910;7.724;2023-09-12T03:55:52;100689.50;;;19.34;100.00
39265;BME280;42646;51.910;7.724;2023-09-12T03:58:20;100676.59;;;19.29;100.00
39265;BME280;42646;51.910;7.724;2023-09-12T04:00:51;100648.75;;;19.22;100.00
39265;BME280;42646;51.910;7.724;2023-09-12T04:03:19;100664.66;;;19.17;100.00
39265;BME280;42646;51.910;7.724;2023-09-12T04:05:50;100664.41;;;19.12;100.00
39265;BME280;42646;51.910;7.724;2023-09-12T04:08:20;100640.50;;;19.09;100.00
39265;BME280;42646;51.910;7.724;2023-09-12T04:10:48;100638.44;;;19.04;100.00
39265;BME280;42646;51.910;7.724;2023-09-12T04:13:42;100594.19;;;18.99;100.00
39265;BME280;42646;51.910;7.724;2023-09-12T04:16:10;100603.69;;;18.94;100.00
39265;BME280;42646;51.910;7.724;2023-09-12T04:18:38;100589.75;;;18.91;100.00
39265;BME280;42646;51.910;7.724;2023-09-12T04:21:12;100580.22;;;18.88;100.00
39265;BME280;42646;51.910;7.724;2023-09-12T04:23:41;100599.28;;;18.87;100.00
39265;BME280;42646;51.910;7.724;2023-09-12T04:26:11;100621.88;;;18.86;100.00
39265;BME280;42646;51.910;7.724;2023-09-12T04:28:39;100641.75;;;18.85;100.00
39265;BME280;42646;51.910;7.724;2023-09-12T04:31:08;100617.69;;;18.83;100.00
39265;BME280;42646;51.910;7.724;2023-09-12T04:33:39;100586.38;;;18.82;100.00
39265;BME280;42646;51.910;7.724;2023-09-12T04:36:09;100544.50;;;18.80;100.00
39265;BME280;42646;51.910;7.724;2023-09-12T04:38:37;100543.63;;;18.79;100.00
39265;BME280;42646;51.910;7.724;2023-09-12T04:41:12;100561.88;;;18.77;100.00
39265;BME280;42646;51.910;7.724;2023-09-12T04:43:44;100573.69;;;18.76;100.00
39265;BME280;42646;51.910;7.724;2023-09-12T04:46:13;100576.38;;;18.76;100.00
39265;BME280;42646;51.910;7.724;2023-09-12T04:48:42;100594.59;;;18.74;100.00
39265;BME280;42646;51.910;7.724;2023-09-12T04:51:12;100604.53;;;18.74;100.00
39265;BME280;42646;51.910;7.724;2023-09-12T04:53:40;100609.91;;;18.74;100.00
39265;BME280;42646;51.910;7.724;2023-09-12T04:56:13;100602.84;;;18.73;100.00
39265;BME280;42646;51.910;7.724;2023-09-12T04:58:42;100603.06;;;18.71;100.00
39265;BME280;42646;51.910;7.724;2023-09-12T05:01:11;100605.75;;;18.71;100.00
39265;BME280;42646;51.910;7.724;2023-09-12T05:03:39;100618.41;;;18.71;100.00
39265;BME280;42646;51.910;7.724;2023-09-12T05:06:32;100636.63;;;18.68;100.00
39265;BME280;42646;51.910;7.724;2023-09-12T05:09:01;100635.81;;;18.68;100.00
39265;BME280;42646;51.910;7.724;2023-09-12T05:11:30;100652.97;;;18.67;100.00
39265;BME280;42646;51.910;7.724;2023-09-12T05:13:58;100645.88;;;18.66;100.00
39265;BME280;42646;51.910;7.724;2023-09-12T05:16:30;100632.63;;;18.64;100.00
39265;BME280;42646;51.910;7.724;2023-09-12T05:18:58;100619.34;;;18.63;100.00
39265;BME280;42646;51.910;7.724;2023-09-12T05:21:28;100613.94;;;18.63;100.00
39265;BME280;42646;51.910;7.724;2023-09-12T05:23:57;100617.69;;;18.62;100.00
39265;BME280;42646;51.910;7.724;2023-09-12T05:26:26;100606.03;;;18.61;100.00
39265;BME280;42646;51.910;7.724;2023-09-12T05:28:58;100605.19;;;18.61;100.00
39265;BME280;42646;51.910;7.724;2023-09-12T05:31:26;100607.72;;;18.62;100.00
39265;BME280;42646;51.910;7.724;2023-09-12T05:33:55;100600.84;;;18.60;100.00
39265;BME280;42646;51.910;7.724;2023-09-12T05:36:22;100601.03;;;18.58;100.00
39265;BME280;42646;51.910;7.724;2023-09-12T05:38:53;100608.94;;;18.60;100.00
39265;BME280;42646;51.910;7.724;2023-09-12T05:41:24;100608.94;;;18.60;100.00
39265;BME280;42646;51.910;7.724;2023-09-12T05:43:52;100613.47;;;18.59;100.00
39265;BME280;42646;51.910;7.724;2023-09-12T05:46:25;100618.03;;;18.59;100.00
39265;BME280;42646;51.910;7.724;2023-09-12T05:48:53;100615.34;;;18.59;100.00
39265;BME280;42646;51.910;7.724;2023-09-12T05:51:21;100609.97;;;18.59;100.00
39265;BME280;42646;51.910;7.724;2023-09-12T05:53:49;100607.06;;;18.60;100.00
39265;BME280;42646;51.910;7.724;2023-09-12T05:56:17;100599.19;;;18.59;100.00
39265;BME280;42646;51.910;7.724;2023-09-12T05:58:48;100601.88;;;18.59;100.00
39265;BME280;42646;51.910;7.724;2023-09-12T06:01:20;100604.38;;;18.60;100.00
39265;BME280;42646;51.910;7.724;2023-09-12T06:03:50;100610.78;;;18.59;100.00
39265;BME280;42646;51.910;7.724;2023-09-12T06:06:18;100616.81;;;18.61;100.00
39265;BME280;42646;51.910;7.724;2023-09-12T06:09:11;100637.53;;;18.61;100.00
39265;BME280;42646;51.910;7.724;2023-09-12T06:11:38;100642.94;;;18.61;100.00
39265;BME280;42646;51.910;7.724;2023-09-12T06:14:08;100644.63;;;18.62;100.00
39265;BME280;42646;51.910;7.724;2023-09-12T06:16:36;100648.97;;;18.63;100.00
39265;BME280;42646;51.910;7.724;2023-09-12T06:19:07;100646.28;;;18.63;100.00
39265;BME280;42646;51.910;7.724;2023-09-12T06:21:35;100649.81;;;18.63;100.00
39265;BME280;42646;51.910;7.724;2023-09-12T06:24:11;100658.94;;;18.62;100.00
39265;BME280;42646;51.910;7.724;2023-09-12T06:26:40;100672.19;;;18.64;100.00
39265;BME280;42646;51.910;7.724;2023-09-12T06:29:12;100710.56;;;18.66;100.00
39265;BME280;42646;51.910;7.724;2023-09-12T06:32:08;100755.38;;;18.67;100.00
39265;BME280;42646;51.910;7.724;2023-09-12T06:34:37;100791.25;;;18.67;100.00
39265;BME280;42646;51.910;7.724;2023-09-12T06:37:05;100802.88;;;18.68;100.00
39265;BME280;42646;51.910;7.724;2023-09-12T06:39:33;100800.84;;;18.70;100.00
39265;BME280;42646;51.910;7.724;2023-09-12T06:42:02;100773.50;;;18.73;100.00
39265;BME280;42646;51.910;7.724;2023-09-12T06:44:29;100741.81;;;18.75;100.00
39265;BME280;42646;51.910;7.724;2023-09-12T06:46:57;100719.22;;;18.76;100.00
39265;BME280;42646;51.910;7.724;2023-09-12T06:49:25;100719.03;;;18.78;100.00
39265;BME280;42646;51.910;7.724;2023-09-12T06:51:58;100713.44;;;18.79;100.00
39265;BME280;42646;51.910;7.724;2023-09-12T06:54:30;100706.84;;;18.82;100.00
39265;BME280;42646;51.910;7.724;2023-09-12T06:57:02;100688.81;;;18.82;100.00
39265;BME280;42646;51.910;7.724;2023-09-12T06:59:30;100678.84;;;18.83;100.00
39265;BME280;42646;51.910;7.724;2023-09-12T07:01:59;100693.16;;;18.83;100.00
39265;BME280;42646;51.910;7.724;2023-09-12T07:04:29;100699.19;;;18.85;100.00
39265;BME280;42646;51.910;7.724;2023-09-12T07:07:02;100701.88;;;18.85;100.00
39265;BME280;42646;51.910;7.724;2023-09-12T07:09:31;100711.66;;;18.86;100.00
39265;BME280;42646;51.910;7.724;2023-09-12T07:12:00;100719.75;;;18.86;100.00
39265;BME280;42646;51.910;7.724;2023-09-12T07:14:30;100724.13;;;18.87;100.00
39265;BME280;42646;51.910;7.724;2023-09-12T07:16:58;100724.13;;;18.87;100.00
39265;BME280;42646;51.910;7.724;2023-09-12T07:19:26;100723.91;;;18.89;100.00
39265;BME280;42646;51.910;7.724;2023-09-12T07:21:54;100739.06;;;18.90;100.00
39265;BME280;42646;51.910;7.724;2023-09-12T07:24:26;100746.97;;;18.91;100.00
39265;BME280;42646;51.910;7.724;2023-09-12T07:26:57;100754.03;;;18.92;100.00
39265;BME280;42646;51.910;7.724;2023-09-12T07:29:29;100779.13;;;18.93;100.00
39265;BME280;42646;51.910;7.724;2023-09-12T07:31:57;100804.03;;;18.95;100.00
39265;BME280;42646;51.910;7.724;2023-09-12T07:34:27;100831.00;;;18.95;100.00
39265;BME280;42646;51.910;7.724;2023-09-12T07:36:55;100800.50;;;18.94;100.00
39265;BME280;42646;51.910;7.724;2023-09-12T07:39:23;100749.06;;;18.96;100.00
39265;BME280;42646;51.910;7.724;2023-09-12T07:41:53;100744.53;;;18.97;100.00
39265;BME280;42646;51.910;7.724;2023-09-12T07:44:21;100698.50;;;18.98;100.00
39265;BME280;42646;51.910;7.724;2023-09-12T07:46:51;100671.56;;;18.98;100.00
39265;BME280;42646;51.910;7.724;2023-09-12T07:49:20;100679.25;;;19.01;100.00
39265;BME280;42646;51.910;7.724;2023-09-12T07:52:18;100707.25;;;19.00;100.00
39265;BME280;42646;51.910;7.724;2023-09-12T07:54:46;100739.19;;;19.03;100.00
39265;BME280;42646;51.910;7.724;2023-09-12T07:57:17;100748.97;;;19.04;100.00
39265;BME280;42646;51.910;7.724;2023-09-12T07:59:44;100772.84;;;19.07;100.00
39265;BME280;42646;51.910;7.724;2023-09-12T08:02:13;100793.41;;;19.08;100.00
39265;BME280;42646;51.910;7.724;2023-09-12T08:04:41;100791.72;;;19.07;100.00
39265;BME280;42646;51.910;7.724;2023-09-12T08:07:10;100755.84;;;19.07;100.00
39265;BME280;42646;51.910;7.724;2023-09-12T08:09:51;100751.28;;;19.07;100.00
39265;BME280;42646;51.910;7.724;2023-09-12T08:12:24;100742.34;;;19.07;100.00
39265;BME280;42646;51.910;7.724;2023-09-12T08:14:55;100739.66;;;19.07;100.00
39265;BME280;42646;51.910;7.724;2023-09-12T08:17:24;100738.63;;;19.08;100.00
39265;BME280;42646;51.910;7.724;2023-09-12T08:19:52;100727.84;;;19.08;100.00
39265;BME280;42646;51.910;7.724;2023-09-12T08:22:20;100723.28;;;19.08;100.00
39265;BME280;42646;51.910;7.724;2023-09-12T08:24:52;100716.69;;;19.11;100.00
39265;BME280;42646;51.910;7.724;2023-09-12T08:27:25;100728.66;;;19.08;100.00
39265;BME280;42646;51.910;7.724;2023-09-12T08:29:53;100750.25;;;19.08;100.00
39265;BME280;42646;51.910;7.724;2023-09-12T08:32:21;100747.38;;;19.10;100.00
39265;BME280;42646;51.910;7.724;2023-09-12T08:34:50;100730.38;;;19.09;100.00
39265;BME280;42646;51.910;7.724;2023-09-12T08:37:23;100715.84;;;19.10;100.00
39265;BME280;42646;51.910;7.724;2023-09-12T08:39:51;100729.13;;;19.12;100.00
39265;BME280;42646;51.910;7.724;2023-09-12T08:42:27;100735.56;;;19.11;100.00
39265;BME280;42646;51.910;7.724;2023-09-12T08:44:55;100735.56;;;19.11;100.00
39265;BME280;42646;51.910;7.724;2023-09-12T08:47:24;100737.44;;;19.10;100.00
39265;BME280;42646;51.910;7.724;2023-09-12T08:49:54;100730.16;;;19.11;100.00
39265;BME280;42646;51.910;7.724;2023-09-12T08:52:22;100729.97;;;19.12;100.00
39265;BME280;42646;51.910;7.724;2023-09-12T08:54:50;100719.38;;;19.11;100.00
39265;BME280;42646;51.910;7.724;2023-09-12T08:57:21;100725.59;;;19.11;100.00
39265;BME280;42646;51.910;7.724;2023-09-12T08:59:51;100729.13;;;19.12;100.00
39265;BME280;42646;51.910;7.724;2023-09-12T09:02:45;100723.94;;;19.10;100.00
39265;BME280;42646;51.910;7.724;2023-09-12T09:05:13;100731.19;;;19.10;100.00
39265;BME280;42646;51.910;7.724;2023-09-12T09:07:42;100739.28;;;19.10;100.00
39265;BME280;42646;51.910;7.724;2023-09-12T09:10:14;100739.09;;;19.11;100.00
39265;BME280;42646;51.910;7.724;2023-09-12T09:12:45;100737.22;;;19.12;100.00
39265;BME280;42646;51.910;7.724;2023-09-12T09:15:24;100731.44;;;19.15;100.00
39265;BME280;42646;51.910;7.724;2023-09-12T09:17:54;100727.72;;;19.16;100.00
39265;BME280;42646;51.910;7.724;2023-09-12T09:20:26;100752.25;;;19.21;100.00
39265;BME280;42646;51.910;7.724;2023-09-12T09:23:02;100748.13;;;19.25;100.00
39265;BME280;42646;51.910;7.724;2023-09-12T09:25:32;100758.34;;;19.30;100.00
39265;BME280;42646;51.910;7.724;2023-09-12T09:28:03;100751.72;;;19.32;100.00
39265;BME280;42646;51.910;7.724;2023-09-12T09:30:42;100761.13;;;19.36;100.00
39265;BME280;42646;51.910;7.724;2023-09-12T09:33:12;100756.19;;;19.40;100.00
39265;BME280;42646;51.910;7.724;2023-09-12T09:35:41;100752.25;;;19.42;100.00
39265;BME280;42646;51.910;7.724;2023-09-12T09:38:09;100754.75;;;19.44;100.00
39265;BME280;42646;51.910;7.724;2023-09-12T09:40:43;100765.16;;;19.47;100.00
39265;BME280;42646;51.910;7.724;2023-09-12T09:43:11;100755.00;;;19.49;100.00
39265;BME280;42646;51.910;7.724;2023-09-12T09:45:44;100749.22;;;19.52;100.00
39265;BME280;42646;51.910;7.724;2023-09-12T09:48:17;100753.19;;;19.56;100.00
39265;BME280;42646;51.910;7.724;2023-09-12T09:50:47;100756.38;;;19.60;100.00
39265;BME280;42646;51.910;7.724;2023-09-12T09:53:15;100753.94;;;19.65;100.00
39265;BME280;42646;51.910;7.724;2023-09-12T09:55:44;100751.66;;;19.68;100.00
39265;BME280;42646;51.910;7.724;2023-09-12T09:58:15;100745.88;;;19.71;100.00
39265;BME280;42646;51.910;7.724;2023-09-12T10:01:11;100758.81;;;19.76;100.00
39265;BME280;42646;51.910;7.724;2023-09-12T10:03:41;100757.34;;;19.80;100.00
39265;BME280;42646;51.910;7.724;2023-09-12T10:06:17;100751.56;;;19.83;100.00
39265;BME280;42646;51.910;7.724;2023-09-12T10:08:47;100749.50;;;19.85;100.00
39265;BME280;42646;51.910;7.724;2023-09-12T10:11:17;100743.53;;;19.90;100.00
39265;BME280;42646;51.910;7.724;2023-09-12T10:13:49;100752.69;;;19.95;100.00
39265;BME280;42646;51.910;7.724;2023-09-12T10:16:24;100756.47;;;20.01;100.00
39265;BME280;42646;51.910;7.724;2023-09-12T10:18:58;100760.72;;;20.10;100.00
39265;BME280;42646;51.910;7.724;2023-09-12T10:21:29;100761.38;;;20.19;100.00
39265;BME280;42646;51.910;7.724;2023-09-12T10:23:59;100771.84;;;20.28;100.00
39265;BME280;42646;51.910;7.724;2023-09-12T10:26:27;100770.41;;;20.39;100.00
39265;BME280;42646;51.910;7.724;2023-09-12T10:28:57;100775.91;;;20.46;100.00
39265;BME280;42646;51.910;7.724;2023-09-12T10:31:27;100769.72;;;20.52;100.00
39265;BME280;42646;51.910;7.724;2023-09-12T10:33:56;100765.53;;;20.56;100.00
39265;BME280;42646;51.910;7.724;2023-09-12T10:36:28;100768.28;;;20.63;100.00
39265;BME280;42646;51.910;7.724;2023-09-12T10:38:57;100766.84;;;20.67;100.00
39265;BME280;42646;51.910;7.724;2023-09-12T10:41:27;100768.13;;;20.71;100.00
39265;BME280;42646;51.910;7.724;2023-09-12T10:43:56;100761.88;;;20.70;100.00
39265;BME280;42646;51.910;7.724;2023-09-12T10:46:27;100771.66;;;20.71;100.00
39265;BME280;42646;51.910;7.724;2023-09-12T10:48:55;100763.34;;;20.73;100.00
39265;BME280;42646;51.910;7.724;2023-09-12T10:51:23;100760.63;;;20.73;100.00
39265;BME280;42646;51.910;7.724;2023-09-12T10:53:52;100759.41;;;20.75;100.00
39265;BME280;42646;51.910;7.724;2023-09-12T10:56:20;100762.53;;;20.79;100.00
39265;BME280;42646;51.910;7.724;2023-09-12T10:59:12;100764.00;;;20.82;100.00
39265;BME280;42646;51.910;7.724;2023-09-12T11:01:43;100768.56;;;20.81;100.00
39265;BME280;42646;51.910;7.724;2023-09-12T11:04:33;100774.19;;;20.86;100.00
39265;BME280;42646;51.910;7.724;2023-09-12T11:07:01;100768.38;;;20.89;100.00
39265;BME280;42646;51.910;7.724;2023-09-12T11:09:29;100767.34;;;20.90;100.00
39265;BME280;42646;51.910;7.724;2023-09-12T11:12:01;100760.50;;;20.94;100.00
39265;BME280;42646;51.910;7.724;2023-09-12T11:14:32;100764.25;;;21.00;100.00
39265;BME280;42646;51.910;7.724;2023-09-12T11:17:23;100764.69;;;21.03;100.00
39265;BME280;42646;51.910;7.724;2023-09-12T11:19:52;100765.13;;;21.07;100.00
39265;BME280;42646;51.910;7.724;2023-09-12T11:22:24;100761.16;;;21.10;100.00
39265;BME280;42646;51.910;7.724;2023-09-12T11:24:54;100761.81;;;21.12;100.00
39265;BME280;42646;51.910;7.724;2023-09-12T11:27:25;100763.03;;;21.16;100.00
39265;BME280;42646;51.910;7.724;2023-09-12T11:30:04;100757.63;;;21.16;100.00
39265;BME280;42646;51.910;7.724;2023-09-12T11:32:36;100754.31;;;21.20;100.00
39265;BME280;42646;51.910;7.724;2023-09-12T11:35:05;100752.03;;;21.24;100.00
39265;BME280;42646;51.910;7.724;2023-09-12T11:37:33;100752.28;;;21.29;100.00
39265;BME280;42646;51.910;7.724;2023-09-12T11:40:16;100752.69;;;21.32;100.00
39265;BME280;42646;51.910;7.724;2023-09-12T11:42:44;100746.06;;;21.35;100.00
39265;BME280;42646;51.910;7.724;2023-09-12T11:45:17;100746.88;;;21.36;100.00
39265;BME280;42646;51.910;7.724;2023-09-12T11:47:49;100750.19;;;21.38;100.00
39265;BME280;42646;51.910;7.724;2023-09-12T11:50:30;100750.63;;;21.41;100.00
39265;BME280;42646;51.910;7.724;2023-09-12T11:53:24;100752.28;;;21.42;100.00
39265;BME280;42646;51.910;7.724;2023-09-12T11:55:56;100745.63;;;21.45;100.00
39265;BME280;42646;51.910;7.724;2023-09-12T11:58:25;100746.06;;;21.48;100.00
39265;BME280;42646;51.910;7.724;2023-09-12T12:00:55;100743.13;;;21.50;100.00
39265;BME280;42646;51.910;7.724;2023-09-12T12:03:26;100740.44;;;21.50;100.00
39265;BME280;42646;51.910;7.724;2023-09-12T12:05:56;100731.25;;;21.51;100.00
39265;BME280;42646;51.910;7.724;2023-09-12T12:08:25;100723.34;;;21.56;100.00
39265;BME280;42646;51.910;7.724;2023-09-12T12:10:59;100728.75;;;21.63;100.00
39265;BME280;42646;51.910;7.724;2023-09-12T12:13:27;100717.53;;;21.66;100.00
39265;BME280;42646;51.910;7.724;2023-09-12T12:15:57;100722.72;;;21.67;100.00
39265;BME280;42646;51.910;7.724;2023-09-12T12:18:27;100721.66;;;21.68;100.00
39265;BME280;42646;51.910;7.724;2023-09-12T12:20:57;100723.75;;;21.73;100.00
39265;BME280;42646;51.910;7.724;2023-09-12T12:23:25;100721.47;;;21.76;100.00
39265;BME280;42646;51.910;7.724;2023-09-12T12:25:55;100718.34;;;21.79;100.00
39265;BME280;42646;51.910;7.724;2023-09-12T12:28:23;100724.34;;;21.81;100.00
39265;BME280;42646;51.910;7.724;2023-09-12T12:30:52;100729.59;;;21.83;100.00
39265;BME280;42646;51.910;7.724;2023-09-12T12:33:21;100718.31;;;21.86;100.00
39265;BME280;42646;51.910;7.724;2023-09-12T12:36:11;100715.38;;;21.87;100.00
39265;BME280;42646;51.910;7.724;2023-09-12T12:38:39;100706.25;;;21.89;100.00
39265;BME280;42646;51.910;7.724;2023-09-12T12:41:23;100704.16;;;21.91;100.00
39265;BME280;42646;51.910;7.724;2023-09-12T12:44:01;100700.38;;;21.92;100.00
39265;BME280;42646;51.910;7.724;2023-09-12T12:46:30;100696.00;;;21.97;100.00
39265;BME280;42646;51.910;7.724;2023-09-12T12:49:00;100708.13;;;21.95;100.00
39265;BME280;42646;51.910;7.724;2023-09-12T12:51:31;100702.88;;;21.93;100.00
39265;BME280;42646;51.910;7.724;2023-09-12T12:54:04;100702.25;;;21.98;100.00
39265;BME280;42646;51.910;7.724;2023-09-12T12:56:33;100697.25;;;22.01;100.00
39265;BME280;42646;51.910;7.724;2023-09-12T12:59:05;100698.28;;;22.07;100.00
39265;BME280;42646;51.910;7.724;2023-09-12T13:01:36;100689.75;;;22.10;100.00